Time;durP1;ratioP1;P1;durP2;ratioP2;P2;SDS_P1;SDS_P2;PMS_P1;PMS_P2;Temp;Humidity;BMP_temperature;BMP_pressure;BME280_temperature;BME280_humidity;BME280_pressure;Samples;Min_cycle;Max_cycle;Signal;HPM_P1;HPM_P2
2022/06/02 00:00:05;;;;;;;;;1.00;1.00;;;;;20.22;36.42;101225.91;2097577;27;47336;-64
2022/06/02 00:01:20;;;;;;;;;2.00;2.00;;;;;20.21;36.63;101224.16;2092766;28;47590;-65
2022/06/02 00:02:27;;;;;;;;;1.75;1.75;;;;;20.20;36.59;101217.00;2091077;27;47831;-65
2022/06/02 00:03:42;;;;;;;;;2.25;2.25;;;;;20.17;36.88;101218.03;2107498;27;47683;-65
2022/06/02 00:04:52;;;;;;;;;0.00;0.00;;;;;20.17;36.76;101223.44;2108338;27;47844;-63
2022/06/02 00:06:23;;;;;;;;;2.80;2.80;;;;;20.14;36.56;101218.22;2104494;27;47811;-64
2022/06/02 00:07:47;;;;;;;;;2.00;2.00;;;;;20.14;36.98;101222.72;2101946;27;48430;-62
2022/06/02 00:09:02;;;;;;;;;1.00;1.00;;;;;20.14;36.91;101218.22;2103826;28;47970;-64
2022/06/02 00:10:26;;;;;;;;;2.20;2.20;;;;;20.14;36.76;101228.13;2098507;28;48127;-64
2022/06/02 00:11:48;;;;;;;;;0.60;0.60;;;;;20.13;36.52;101223.69;2103833;27;47775;-65
2022/06/02 00:13:01;;;;;;;;;2.80;2.80;;;;;20.11;36.97;101220.22;2108266;27;48334;-63
2022/06/02 00:14:10;;;;;;;;;3.00;3.00;;;;;20.09;37.10;101222.13;2098997;27;47433;-65
2022/06/02 00:15:26;;;;;;;;;1.40;1.40;;;;;20.06;36.71;101220.44;2102941;27;47635;-63
2022/06/02 00:17:02;;;;;;;;;2.60;1.40;;;;;20.05;36.88;101223.22;2100143;28;47490;-63
2022/06/02 00:18:14;;;;;;;;;2.80;2.60;;;;;20.03;36.85;101225.13;2067188;28;47607;-63
2022/06/02 00:19:50;;;;;;;;;4.40;3.00;;;;;20.01;37.13;101224.34;2073572;28;47613;-64
2022/06/02 00:20:59;;;;;;;;;2.75;2.75;;;;;19.99;37.38;101224.41;2045331;28;48079;-63
2022/06/02 00:22:08;;;;;;;;;3.50;2.50;;;;;19.98;37.27;101228.94;2039784;28;47717;-64
2022/06/02 00:23:44;;;;;;;;;4.00;3.40;;;;;19.97;37.36;101229.91;2046056;28;47802;-63
2022/06/02 00:24:54;;;;;;;;;3.00;3.00;;;;;19.97;37.01;101237.97;2022945;29;47673;-64
2022/06/02 00:26:00;;;;;;;;;4.00;4.00;;;;;19.96;37.17;101235.38;2021955;29;48452;-64
2022/06/02 00:27:14;;;;;;;;;2.00;2.00;;;;;19.94;37.20;101238.13;2025091;29;47624;-65
2022/06/02 00:28:25;;;;;;;;;2.40;2.40;;;;;19.92;37.39;101231.94;2022553;29;47771;-64
2022/06/02 00:29:49;;;;;;;;;2.00;2.00;;;;;19.90;37.26;101230.28;2020709;29;47767;-64
2022/06/02 00:31:01;;;;;;;;;1.25;1.25;;;;;19.88;37.26;101235.75;2022018;29;48168;-65
2022/06/02 00:32:35;;;;;;;;;2.25;2.25;;;;;19.87;37.14;101246.63;2023027;29;47398;-64
2022/06/02 00:34:22;;;;;;;;;2.00;2.00;;;;;19.84;37.17;101241.41;2025124;28;47136;-65
2022/06/02 00:35:30;;;;;;;;;2.25;2.25;;;;;19.83;37.29;101250.44;2012956;29;47695;-64
2022/06/02 00:36:38;;;;;;;;;2.00;1.50;;;;;19.82;37.25;101251.34;2013317;29;47470;-64
2022/06/02 00:37:43;;;;;;;;;2.40;2.00;;;;;19.79;37.39;101246.13;2013551;29;47934;-62
2022/06/02 00:38:44;;;;;;;;;2.00;2.00;;;;;19.77;37.62;101248.91;2013599;29;47907;-63
2022/06/02 00:39:47;;;;;;;;;2.00;2.00;;;;;19.75;37.31;101253.50;2012655;29;48009;-64
2022/06/02 00:40:47;;;;;;;;;3.00;2.75;;;;;19.74;37.70;101251.75;2014275;29;47499;-64
2022/06/02 00:42:01;;;;;;;;;3.00;3.00;;;;;19.74;37.62;101248.19;2013590;29;47478;-64
2022/06/02 00:43:52;;;;;;;;;3.00;2.00;;;;;19.74;37.76;101249.06;2006601;29;47746;-64
2022/06/02 00:44:55;;;;;;;;;3.00;3.00;;;;;19.74;37.41;101245.50;1991330;29;47623;-64
2022/06/02 00:46:27;;;;;;;;;3.25;2.75;;;;;19.74;37.65;101249.06;1990741;29;47927;-64
2022/06/02 00:47:40;;;;;;;;;3.25;2.25;;;;;19.74;37.61;101248.19;1974680;29;48081;-62
2022/06/02 00:48:43;;;;;;;;;3.00;3.00;;;;;19.72;37.71;101242.91;1968931;29;47610;-63
2022/06/02 00:50:04;;;;;;;;;2.50;2.50;;;;;19.73;37.67;101246.47;1970677;29;47826;-63
2022/06/02 00:51:07;;;;;;;;;2.00;2.00;;;;;19.73;37.87;101243.75;1976418;29;47376;-64
2022/06/02 00:52:11;;;;;;;;;1.00;1.00;;;;;19.72;37.96;101245.59;1975862;29;48585;-64
2022/06/02 00:53:27;;;;;;;;;4.00;4.00;;;;;19.72;37.52;101242.91;1976221;29;47689;-64
2022/06/02 00:57:57;;;;;;;;;2.75;2.75;;;;;19.68;38.05;101241.28;1988269;29;47608;-64
2022/06/02 00:59:23;;;;;;;;;3.25;3.25;;;;;19.68;37.88;101241.28;1999005;29;48002;-63
2022/06/02 01:00:50;;;;;;;;;4.00;4.00;;;;;19.67;37.95;101236.84;1999390;29;47310;-64
2022/06/02 01:01:51;;;;;;;;;2.00;2.00;;;;;19.66;37.71;101238.69;2002844;29;48264;-64
2022/06/02 01:02:57;;;;;;;;;2.00;2.00;;;;;19.67;38.04;101236.84;2006650;29;47449;-63
2022/06/02 01:04:00;;;;;;;;;3.00;3.00;;;;;19.67;37.99;101244.94;2001598;29;48038;-63
2022/06/02 01:05:02;;;;;;;;;2.20;2.20;;;;;19.66;37.71;101243.19;2006467;29;48320;-64
2022/06/02 01:06:14;;;;;;;;;3.00;3.00;;;;;19.66;37.84;101240.50;2002938;29;47374;-64
2022/06/02 01:07:34;;;;;;;;;3.00;3.00;;;;;19.66;38.00;101243.19;2005501;29;48202;-63
2022/06/02 01:08:55;;;;;;;;;2.25;2.25;;;;;19.65;38.16;101238.75;2000600;29;47908;-65
2022/06/02 01:10:14;;;;;;;;;3.50;3.50;;;;;19.63;37.86;101238.84;2000971;29;47724;-64
2022/06/02 01:11:34;;;;;;;;;2.75;2.75;;;;;19.62;38.12;101237.09;1997794;29;48193;-64
2022/06/02 01:12:47;;;;;;;;;3.20;3.20;;;;;19.61;38.09;101231.78;2031249;28;47653;-65
2022/06/02 01:13:57;;;;;;;;;3.00;3.00;;;;;19.59;38.11;101237.25;2043957;28;48095;-64
2022/06/02 01:14:58;;;;;;;;;2.75;2.75;;;;;19.58;38.40;101235.53;2036619;28;48197;-64
2022/06/02 01:16:07;;;;;;;;;1.33;1.33;;;;;19.58;38.01;101240.91;2031902;28;47007;-64
2022/06/02 01:17:45;;;;;;;;;4.40;3.00;;;;;19.59;38.22;101239.97;2045606;28;48015;-64
2022/06/02 01:19:09;;;;;;;;;2.00;2.00;;;;;19.59;38.53;101242.66;2045030;28;47719;-64
2022/06/02 01:20:25;;;;;;;;;4.00;4.00;;;;;19.58;38.34;101234.66;2039641;28;47261;-65
2022/06/02 01:21:44;;;;;;;;;3.20;3.20;;;;;19.56;38.26;101241.91;2061223;28;48184;-65
2022/06/02 01:23:02;;;;;;;;;4.60;4.60;;;;;19.55;38.23;101227.56;2069766;28;48192;-64
2022/06/02 01:24:29;;;;;;;;;3.80;3.80;;;;;19.57;38.31;101232.91;2066867;28;47829;-64
2022/06/02 01:25:51;;;;;;;;;3.00;3.00;;;;;19.55;38.31;101226.72;2098650;27;48218;-65
2022/06/02 01:27:18;;;;;;;;;2.25;2.25;;;;;19.53;38.65;101229.44;2094606;28;47996;-63
2022/06/02 01:28:44;;;;;;;;;3.80;3.80;;;;;19.53;38.33;101231.28;2094041;27;47905;-63
2022/06/02 01:30:20;;;;;;;;;2.80;2.80;;;;;19.53;38.58;101225.88;2104711;27;48287;-64
2022/06/02 01:31:43;;;;;;;;;2.80;2.80;;;;;19.50;38.48;101232.31;2069789;28;47627;-64
2022/06/02 01:33:15;;;;;;;;;5.00;5.00;;;;;19.48;38.59;101231.50;2077950;28;48105;-63
2022/06/02 01:34:44;;;;;;;;;4.50;3.75;;;;;19.49;38.46;101235.94;2054841;28;46680;-65
2022/06/02 01:36:03;;;;;;;;;2.80;2.80;;;;;19.49;38.46;101232.38;2025894;29;47795;-66
2022/06/02 01:37:11;;;;;;;;;3.20;3.20;;;;;19.49;38.55;101238.63;2028779;28;48169;-64
2022/06/02 01:38:25;;;;;;;;;1.60;1.60;;;;;19.49;38.58;101230.56;2030299;28;47979;-65
2022/06/02 01:39:53;;;;;;;;;3.40;3.40;;;;;19.49;38.46;101229.69;2029706;29;48268;-66
2022/06/02 01:40:56;;;;;;;;;5.20;5.20;;;;;19.50;38.80;101231.44;2030790;29;48085;-65
2022/06/02 01:42:18;;;;;;;;;4.60;3.80;;;;;19.50;38.45;101231.44;2029374;28;47471;-63
2022/06/02 01:43:43;;;;;;;;;4.60;3.00;;;;;19.49;39.04;101227.88;2029936;28;47792;-63
2022/06/02 01:44:55;;;;;;;;;3.80;3.00;;;;;19.49;38.82;101227.88;2031353;28;47852;-66
2022/06/02 01:46:28;;;;;;;;;6.40;4.80;;;;;19.50;38.79;101220.66;2029102;28;47903;-64
2022/06/02 01:47:34;;;;;;;;;4.00;4.00;;;;;19.49;38.82;101221.63;2029496;28;47468;-67
2022/06/02 01:49:04;;;;;;;;;4.00;3.60;;;;;19.49;38.59;101230.56;2030363;28;47604;-65
2022/06/02 01:50:19;;;;;;;;;5.60;5.60;;;;;19.47;38.73;101237.84;2029475;29;47863;-65
2022/06/02 01:51:40;;;;;;;;;4.00;4.00;;;;;19.46;38.82;101230.72;2029829;28;48434;-65
2022/06/02 01:52:43;;;;;;;;;2.00;2.00;;;;;19.46;38.81;101236.09;2030793;28;48231;-64
2022/06/02 01:54:00;;;;;;;;;3.80;3.40;;;;;19.45;38.71;101237.06;2029458;29;47858;-63
2022/06/02 01:55:20;;;;;;;;;4.00;4.00;;;;;19.45;38.77;101245.13;2015328;29;48300;-65
2022/06/02 01:56:36;;;;;;;;;3.60;3.60;;;;;19.45;38.99;101246.97;2019375;29;47872;-64
2022/06/02 01:57:41;;;;;;;;;4.40;3.40;;;;;19.45;38.83;101246.97;2029547;28;48114;-65
2022/06/02 01:58:56;;;;;;;;;3.25;3.25;;;;;19.44;39.07;101246.09;2030514;29;47676;-64
2022/06/02 02:00:17;;;;;;;;;3.20;3.20;;;;;19.45;38.81;101239.75;2029123;28;47328;-63
2022/06/02 02:01:51;;;;;;;;;3.00;3.00;;;;;19.45;38.67;101247.81;2030058;28;47707;-63
2022/06/02 02:03:17;;;;;;;;;5.40;4.40;;;;;19.45;38.93;101242.44;2033944;28;48066;-63
2022/06/02 02:04:27;;;;;;;;;4.80;3.20;;;;;19.45;38.59;101250.53;2030385;29;47552;-64
2022/06/02 02:05:57;;;;;;;;;3.80;3.80;;;;;19.44;38.97;101248.78;2029422;29;46870;-64
2022/06/02 02:07:24;;;;;;;;;5.60;4.00;;;;;19.45;39.05;101247.81;2039251;28;46225;-63
2022/06/02 02:09:04;;;;;;;;;3.80;3.80;;;;;19.46;38.64;101248.69;2037242;28;48478;-63
2022/06/02 02:10:18;;;;;;;;;4.20;4.20;;;;;19.44;39.06;101251.47;2036995;28;47085;-64
2022/06/02 02:11:50;;;;;;;;;3.00;3.00;;;;;19.44;39.04;101250.56;2037682;28;47873;-63
2022/06/02 02:13:16;;;;;;;;;3.60;3.60;;;;;19.43;38.99;101249.69;2068102;28;47606;-63
2022/06/02 02:14:41;;;;;;;;;5.20;3.40;;;;;19.42;38.99;101243.44;2078220;28;47628;-63
2022/06/02 02:16:08;;;;;;;;;5.60;5.00;;;;;19.41;39.09;101249.78;2077648;28;47806;-63
2022/06/02 02:17:18;;;;;;;;;3.20;3.20;;;;;19.41;39.01;101243.53;2079118;28;47951;-63
2022/06/02 02:19:15;;;;;;;;;5.40;5.40;;;;;19.40;39.07;101247.16;2078559;28;47994;-64
2022/06/02 02:20:38;;;;;;;;;5.40;3.00;;;;;19.40;39.36;101244.47;2078424;28;48079;-63
2022/06/02 02:21:57;;;;;;;;;4.00;3.20;;;;;19.38;39.05;101238.31;2077772;28;47625;-63
2022/06/02 02:23:20;;;;;;;;;5.40;5.40;;;;;19.38;39.22;101238.31;2071202;28;47752;-64
2022/06/02 02:25:01;;;;;;;;;4.40;4.00;;;;;19.36;39.12;101238.38;2080309;28;47843;-64
2022/06/02 02:26:13;;;;;;;;;7.20;6.40;;;;;19.35;39.29;101233.94;2068917;28;47753;-64
2022/06/02 02:27:20;;;;;;;;;4.00;4.00;;;;;19.33;39.35;101232.28;2068322;28;47784;-64
2022/06/02 02:28:50;;;;;;;;;4.40;4.40;;;;;19.32;39.27;101244.88;2078553;28;47703;-63
2022/06/02 02:30:10;;;;;;;;;4.80;4.80;;;;;19.30;39.28;101237.81;2078245;28;48173;-63
2022/06/02 02:31:25;;;;;;;;;5.20;5.20;;;;;19.30;39.40;101237.81;2078749;28;47692;-62
2022/06/02 02:32:55;;;;;;;;;6.80;5.80;;;;;19.28;39.14;101237.00;2078933;28;47996;-63
2022/06/02 02:34:28;;;;;;;;;3.60;3.60;;;;;19.24;39.53;101230.91;2075406;28;47771;-63
2022/06/02 02:35:45;;;;;;;;;4.20;4.20;;;;;19.22;39.56;101235.50;2075319;28;47770;-62
2022/06/02 02:37:01;;;;;;;;;4.20;4.20;;;;;19.21;39.66;101232.91;2079162;28;47253;-63
2022/06/02 02:38:10;;;;;;;;;4.40;4.40;;;;;19.20;39.55;101234.72;2069862;28;48076;-63
2022/06/02 02:39:37;;;;;;;;;4.00;4.00;;;;;19.20;39.34;101240.09;2071900;28;47757;-64
2022/06/02 02:40:51;;;;;;;;;4.80;4.80;;;;;19.18;39.39;101241.97;2078169;28;47746;-63
2022/06/02 02:42:04;;;;;;;;;6.20;6.20;;;;;19.17;39.55;101233.97;2077518;28;46741;-63
2022/06/02 02:43:09;;;;;;;;;5.20;5.20;;;;;19.13;39.45;101241.34;2072574;28;47641;-63
2022/06/02 02:44:22;;;;;;;;;6.20;6.20;;;;;19.12;39.62;101234.22;2077342;28;47674;-63
2022/06/02 02:46:00;;;;;;;;;5.00;5.00;;;;;19.09;39.97;101231.69;2080045;28;47789;-64
2022/06/02 02:47:29;;;;;;;;;4.80;4.00;;;;;19.10;40.00;101228.03;2071046;28;48112;-64
2022/06/02 02:49:10;;;;;;;;;5.80;5.40;;;;;19.10;39.83;101231.59;2068810;28;47711;-64
2022/06/02 02:50:26;;;;;;;;;6.40;6.40;;;;;19.08;39.91;101225.44;2058971;28;47886;-63
2022/06/02 02:51:30;;;;;;;;;6.60;5.20;;;;;19.07;39.57;101226.38;2061329;28;47734;-64
2022/06/02 02:52:58;;;;;;;;;5.00;5.00;;;;;19.06;39.86;101227.31;2062319;28;47920;-64
2022/06/02 02:54:07;;;;;;;;;4.40;4.40;;;;;19.06;39.73;101231.84;2060402;28;46517;-64
2022/06/02 02:55:16;;;;;;;;;5.20;5.20;;;;;19.05;39.86;101230.94;2063104;28;47759;-62
2022/06/02 02:56:32;;;;;;;;;6.00;6.00;;;;;19.04;39.80;101239.94;2061638;28;48044;-64
2022/06/02 02:58:04;;;;;;;;;5.40;5.40;;;;;19.02;39.71;101239.16;2061438;28;48437;-63
2022/06/02 02:59:36;;;;;;;;;4.40;4.40;;;;;19.00;39.64;101237.50;2054526;28;47390;-65
2022/06/02 03:00:59;;;;;;;;;6.00;6.00;;;;;18.96;39.80;101242.16;2053379;28;48397;-64
2022/06/02 03:02:15;;;;;;;;;6.00;6.00;;;;;18.92;40.26;101237.84;2051072;28;47406;-64
2022/06/02 03:03:22;;;;;;;;;6.00;6.00;;;;;18.93;40.02;101236.94;2051287;28;48329;-63
2022/06/02 03:04:54;;;;;;;;;5.00;5.00;;;;;18.92;40.20;101239.66;2053513;28;47489;-64
2022/06/02 03:06:13;;;;;;;;;2.00;2.00;;;;;18.90;40.11;101245.13;2051950;28;48942;-64
2022/06/02 03:07:13;;;;;;;;;5.80;4.40;;;;;18.91;40.27;101246.00;2053680;28;45486;-65
2022/06/02 03:08:24;;;;;;;;;3.75;3.00;;;;;18.89;39.93;101239.81;2053098;28;46612;-65
2022/06/02 03:09:42;;;;;;;;;4.20;4.20;;;;;18.87;40.02;101239.91;2052972;28;47782;-65
2022/06/02 03:10:47;;;;;;;;;5.80;5.80;;;;;18.87;40.09;101239.91;2028887;29;47545;-64
2022/06/02 03:12:34;;;;;;;;;5.20;5.20;;;;;18.84;40.41;101237.38;2026771;28;45798;-64
2022/06/02 03:13:53;;;;;;;;;5.60;5.60;;;;;18.83;40.37;101240.13;2005518;29;47960;-64
2022/06/02 03:15:20;;;;;;;;;4.00;4.00;;;;;18.83;40.48;101237.44;2006882;29;47573;-65
2022/06/02 03:16:22;;;;;;;;;3.75;3.75;;;;;18.83;40.27;101235.63;2008281;29;47642;-65
2022/06/02 03:17:53;;;;;;;;;3.80;3.80;;;;;18.81;40.33;101232.13;2006926;29;48040;-65
2022/06/02 03:19:16;;;;;;;;;5.80;5.80;;;;;18.83;40.32;101226.69;2008583;29;47695;-64
2022/06/02 03:20:28;;;;;;;;;5.60;5.60;;;;;18.81;40.45;101224.94;2006689;29;48008;-64
2022/06/02 03:21:33;;;;;;;;;7.00;7.00;;;;;18.81;40.53;101226.75;2011155;29;47399;-64
2022/06/02 03:22:45;;;;;;;;;6.60;6.60;;;;;18.80;40.61;101230.38;2006980;29;48034;-63
2022/06/02 03:24:03;;;;;;;;;5.00;5.00;;;;;18.78;40.40;101229.56;2007289;29;48181;-63
2022/06/02 03:25:26;;;;;;;;;6.20;5.80;;;;;18.76;40.29;101231.47;1986224;29;48031;-66
2022/06/02 03:26:44;;;;;;;;;8.00;7.60;;;;;18.75;40.53;101229.72;1993138;29;47939;-65
2022/06/02 03:28:13;;;;;;;;;7.00;6.00;;;;;18.73;40.29;101231.63;2012179;29;46162;-64
2022/06/02 03:29:52;;;;;;;;;5.80;4.80;;;;;18.71;40.53;101234.38;2028442;29;48012;-64
2022/06/02 03:31:18;;;;;;;;;6.00;6.00;;;;;18.69;40.80;101238.97;2007205;29;47609;-65
2022/06/02 03:32:36;;;;;;;;;5.60;5.60;;;;;18.67;40.69;101239.97;2006137;29;48031;-64
2022/06/02 03:33:46;;;;;;;;;6.40;6.40;;;;;18.65;40.70;101236.47;2004943;29;47746;-65
2022/06/02 03:34:56;;;;;;;;;7.20;6.00;;;;;18.63;40.44;101239.22;2007081;29;48215;-63
2022/06/02 03:36:07;;;;;;;;;5.80;5.80;;;;;18.62;40.44;101240.16;2005222;29;47506;-64
2022/06/02 03:37:20;;;;;;;;;4.40;4.40;;;;;18.62;40.75;101250.91;2018761;29;47686;-63
2022/06/02 03:38:35;;;;;;;;;7.00;7.00;;;;;18.61;40.74;101246.47;2013804;29;48475;-64
2022/06/02 03:40:08;;;;;;;;;5.40;5.40;;;;;18.61;40.63;101248.28;2013342;29;48585;-63
2022/06/02 03:41:37;;;;;;;;;6.80;6.20;;;;;18.61;40.88;101241.09;1999474;29;45895;-64
2022/06/02 03:43:08;;;;;;;;;7.00;7.00;;;;;18.61;40.91;101248.28;1990755;29;47353;-62
2022/06/02 03:44:17;;;;;;;;;7.00;7.00;;;;;18.61;40.92;101251.84;1993504;29;47468;-62
2022/06/02 03:45:35;;;;;;;;;6.00;5.75;;;;;18.61;40.88;101250.97;1998091;29;47506;-61
2022/06/02 03:47:03;;;;;;;;;7.00;6.50;;;;;18.59;40.82;101245.69;1999006;29;48314;-64
2022/06/02 03:48:23;;;;;;;;;5.00;5.00;;;;;18.58;41.01;101246.63;1997279;29;47635;-62
2022/06/02 03:49:29;;;;;;;;;6.40;6.40;;;;;18.60;41.00;101246.56;1999415;29;48049;-63
2022/06/02 03:50:29;;;;;;;;;6.00;6.00;;;;;18.59;40.72;101253.75;1999319;29;47212;-64
2022/06/02 03:51:32;;;;;;;;;6.00;6.00;;;;;18.60;40.71;101251.94;2027377;28;47411;-63
2022/06/02 03:52:50;;;;;;;;;7.20;6.80;;;;;18.59;40.89;101252.88;2030502;29;47574;-63
2022/06/02 03:54:12;;;;;;;;;5.50;5.50;;;;;18.57;41.24;101261.00;2030520;29;48130;-64
2022/06/02 03:55:34;;;;;;;;;5.25;5.25;;;;;18.57;40.93;101260.16;2021965;29;47602;-63
2022/06/02 03:56:37;;;;;;;;;7.00;7.00;;;;;18.56;40.99;101261.97;2024982;29;47952;-64
2022/06/02 03:58:10;;;;;;;;;7.75;6.50;;;;;18.56;40.71;101255.72;2030124;29;47985;-64
2022/06/02 03:59:37;;;;;;;;;4.60;4.60;;;;;18.54;41.03;101262.00;2030417;29;48308;-64
2022/06/02 04:00:53;;;;;;;;;7.00;5.20;;;;;18.56;41.25;101247.66;1991561;29;48421;-64
2022/06/02 04:02:05;;;;;;;;;6.00;6.00;;;;;18.56;40.90;101250.34;1998942;29;47234;-64
2022/06/02 04:03:06;;;;;;;;;6.50;6.50;;;;;18.57;40.93;101241.31;1998923;29;47659;-64
2022/06/02 04:04:15;;;;;;;;;6.00;6.00;;;;;18.56;41.00;101243.16;1999215;29;47787;-63
2022/06/02 04:05:23;;;;;;;;;5.75;5.75;;;;;18.56;40.91;101242.28;1999019;29;47827;-65
2022/06/02 04:06:56;;;;;;;;;7.75;6.75;;;;;18.54;40.88;101248.56;2004187;29;47738;-63
2022/06/02 04:08:14;;;;;;;;;5.00;5.00;;;;;18.53;40.83;101244.13;1969498;29;47245;-62
2022/06/02 04:09:21;;;;;;;;;7.50;6.25;;;;;18.51;41.13;101251.41;1981630;29;47415;-64
2022/06/02 04:10:42;;;;;;;;;4.75;4.75;;;;;18.51;41.09;101261.28;1982690;29;47750;-64
2022/06/02 04:14:56;;;;;;;;;9.25;7.50;;;;;18.46;41.10;101255.25;1987561;29;47812;-64
2022/06/02 04:16:16;;;;;;;;;6.50;6.50;;;;;18.46;41.28;101255.25;1981263;29;47575;-63
2022/06/02 04:17:49;;;;;;;;;7.00;7.00;;;;;18.46;41.04;101263.31;1983932;29;48080;-64
2022/06/02 04:20:52;;;;;;;;;6.75;6.25;;;;;18.44;41.29;101263.41;1999192;29;47696;-64
2022/06/02 04:22:25;;;;;;;;;7.40;7.40;;;;;18.43;41.02;101264.34;1999081;29;47718;-64
2022/06/02 04:23:37;;;;;;;;;8.50;7.00;;;;;18.42;41.01;101261.69;1998862;29;47801;-63
2022/06/02 04:24:57;;;;;;;;;5.25;5.25;;;;;18.42;41.27;101267.97;1991587;29;47909;-63
2022/06/02 04:26:15;;;;;;;;;3.75;3.00;;;;;18.40;41.30;101264.44;1993051;29;47673;-63
2022/06/02 04:27:25;;;;;;;;;6.00;6.00;;;;;18.40;41.02;101266.28;1995520;29;47228;-64
2022/06/02 04:28:45;;;;;;;;;6.50;6.50;;;;;18.39;40.98;101267.22;2003498;29;47635;-63
2022/06/02 04:29:48;;;;;;;;;7.80;7.80;;;;;18.39;41.31;101261.84;2006695;29;47625;-64
2022/06/02 04:31:10;;;;;;;;;6.50;6.25;;;;;18.39;41.11;101268.09;2006845;29;47626;-64
2022/06/02 04:32:35;;;;;;;;;6.50;6.50;;;;;18.39;41.11;101268.09;1998935;29;47936;-64
2022/06/02 04:33:50;;;;;;;;;6.00;6.00;;;;;18.38;41.39;101271.72;2003014;29;48092;-63
2022/06/02 04:34:58;;;;;;;;;8.00;8.00;;;;;18.38;41.47;101265.47;2000815;29;47821;-63
2022/06/02 04:36:26;;;;;;;;;7.60;7.00;;;;;18.37;41.30;101269.97;2006041;29;47974;-63
2022/06/02 04:37:26;;;;;;;;;6.80;6.80;;;;;18.37;41.45;101272.66;1998850;29;47360;-64
2022/06/02 04:38:39;;;;;;;;;4.67;4.67;;;;;18.35;41.34;101265.63;2016832;29;47835;-64
2022/06/02 04:39:46;;;;;;;;;7.80;7.00;;;;;18.34;41.50;101274.63;2030512;29;45596;-64
2022/06/02 04:41:02;;;;;;;;;9.80;9.80;;;;;18.33;41.31;101286.31;2030195;29;47641;-63
2022/06/02 04:42:35;;;;;;;;;10.20;9.20;;;;;18.30;41.02;101287.34;2029794;29;47430;-63
2022/06/02 04:44:09;;;;;;;;;8.00;8.00;;;;;18.25;41.48;101297.38;2029870;29;47344;-64
2022/06/02 04:45:35;;;;;;;;;9.00;9.00;;;;;18.22;41.59;101292.16;2010436;28;48156;-63
2022/06/02 04:46:59;;;;;;;;;7.40;7.40;;;;;18.21;41.60;101290.41;2038723;28;47884;-63
2022/06/02 04:48:27;;;;;;;;;32.60;29.40;;;;;18.18;41.85;101282.50;2038672;28;47858;-63
2022/06/02 04:49:40;;;;;;;;;11.40;10.40;;;;;18.18;41.85;101287.88;2038240;28;48035;-63
2022/06/02 04:50:48;;;;;;;;;11.00;10.40;;;;;18.17;41.84;101284.31;2037693;28;47826;-64
2022/06/02 04:52:13;;;;;;;;;9.00;9.00;;;;;18.20;41.90;101283.31;2038508;28;48606;-64
2022/06/02 04:53:19;;;;;;;;;7.20;7.20;;;;;18.22;41.76;101282.28;2038738;28;47631;-64
2022/06/02 04:54:26;;;;;;;;;8.00;8.00;;;;;18.23;41.45;101278.66;2038518;28;47661;-64
2022/06/02 04:55:40;;;;;;;;;9.60;9.60;;;;;18.26;41.82;101276.75;2038170;28;47337;-64
2022/06/02 04:56:51;;;;;;;;;7.00;6.40;;;;;18.28;41.84;101280.25;2051272;28;48083;-64
2022/06/02 04:58:10;;;;;;;;;7.20;6.60;;;;;18.30;41.69;101281.97;2062758;28;48410;-63
2022/06/02 04:59:20;;;;;;;;;10.40;10.40;;;;;18.32;41.78;101281.88;2062561;28;47717;-63
2022/06/02 05:00:20;;;;;;;;;8.40;8.40;;;;;18.31;41.78;101281.00;2060264;28;47456;-64
2022/06/02 05:01:23;;;;;;;;;8.50;7.75;;;;;18.31;41.85;101282.81;2064929;28;48047;-63
2022/06/02 05:02:33;;;;;;;;;7.20;7.20;;;;;18.31;41.53;101283.69;2068386;28;48202;-64
2022/06/02 05:03:50;;;;;;;;;7.00;7.00;;;;;18.31;41.67;101282.81;2053999;28;47687;-65
2022/06/02 05:05:20;;;;;;;;;9.00;9.00;;;;;18.32;41.74;101281.88;2065582;28;47599;-63
2022/06/02 05:06:46;;;;;;;;;7.80;7.80;;;;;18.36;41.73;101283.47;2037787;28;48632;-63
2022/06/02 05:07:55;;;;;;;;;8.80;8.80;;;;;18.37;41.80;101279.84;2033314;28;48177;-64
2022/06/02 05:09:36;;;;;;;;;7.60;7.60;;;;;18.41;41.55;101276.06;2036852;28;47703;-63
2022/06/02 05:11:07;;;;;;;;;6.60;6.60;;;;;18.42;41.70;101277.81;2027180;28;47686;-64
2022/06/02 05:12:20;;;;;;;;;9.40;7.60;;;;;18.42;41.67;101276.03;2025784;29;47778;-65
2022/06/02 05:13:29;;;;;;;;;8.80;8.60;;;;;18.41;41.92;101274.25;2038810;28;48193;-65
2022/06/02 05:14:54;;;;;;;;;8.00;8.00;;;;;18.41;41.59;101279.63;2031924;28;47776;-64
2022/06/02 05:16:15;;;;;;;;;8.00;7.60;;;;;18.42;41.65;101275.13;2035632;28;47921;-63
2022/06/02 05:17:36;;;;;;;;;7.80;7.80;;;;;18.43;41.74;101275.09;2035464;28;48348;-65
2022/06/02 05:19:06;;;;;;;;;9.00;9.00;;;;;18.46;41.60;101280.31;2031684;29;47783;-65
2022/06/02 05:20:21;;;;;;;;;6.80;6.80;;;;;18.48;41.84;101278.41;2029636;29;47695;-65
2022/06/02 05:21:36;;;;;;;;;10.60;10.60;;;;;18.49;41.78;101274.78;2031335;29;47754;-65
2022/06/02 05:23:10;;;;;;;;;9.20;7.60;;;;;18.50;41.65;101273.84;2031229;28;47527;-64
2022/06/02 05:24:35;;;;;;;;;10.60;10.60;;;;;18.50;41.48;101272.97;2036699;28;47319;-65
2022/06/02 05:25:44;;;;;;;;;9.80;9.20;;;;;18.50;41.74;101272.97;2036321;28;47485;-65
2022/06/02 05:26:57;;;;;;;;;10.00;9.20;;;;;18.50;41.55;101271.16;2036674;28;47501;-65
2022/06/02 05:28:23;;;;;;;;;9.80;9.80;;;;;18.49;41.67;101276.59;2038677;28;47598;-65
2022/06/02 05:29:33;;;;;;;;;10.60;9.00;;;;;18.48;41.48;101275.75;2038764;28;47279;-64
2022/06/02 05:30:54;;;;;;;;;8.80;8.20;;;;;18.48;41.61;101278.41;2036196;28;48417;-63
2022/06/02 05:32:21;;;;;;;;;9.60;8.40;;;;;18.48;41.53;101274.88;2036299;28;47363;-63
2022/06/02 05:33:38;;;;;;;;;9.80;8.80;;;;;18.48;41.56;101278.41;2036194;28;47767;-63
2022/06/02 05:34:50;;;;;;;;;8.00;8.00;;;;;18.48;41.54;101273.03;2025676;29;47704;-64
2022/06/02 05:36:10;;;;;;;;;6.75;6.75;;;;;18.49;41.50;101277.47;2038954;28;47467;-63
2022/06/02 05:37:30;;;;;;;;;7.50;7.50;;;;;18.51;41.69;101277.41;2037671;28;46578;-64
2022/06/02 05:38:54;;;;;;;;;7.60;7.60;;;;;18.53;41.51;101275.50;2035986;28;47440;-65
2022/06/02 05:40:25;;;;;;;;;8.80;8.80;;;;;18.54;41.68;101280.81;2038565;28;47645;-64
2022/06/02 05:41:47;;;;;;;;;8.60;8.60;;;;;18.56;41.75;101280.78;2038713;28;47801;-65
2022/06/02 05:42:54;;;;;;;;;8.20;8.20;;;;;18.57;41.59;101278.97;2031200;29;47473;-63
2022/06/02 05:44:16;;;;;;;;;10.20;9.00;;;;;18.58;41.58;101286.94;2038209;28;47462;-64
2022/06/02 05:45:29;;;;;;;;;10.40;9.20;;;;;18.57;41.54;101287.91;2053312;28;47320;-64
2022/06/02 05:46:45;;;;;;;;;9.60;9.60;;;;;18.58;41.55;101284.25;2078871;28;47543;-64
2022/06/02 05:48:10;;;;;;;;;10.00;9.00;;;;;18.56;41.54;101288.84;2079035;28;47913;-63
2022/06/02 05:49:22;;;;;;;;;7.80;7.80;;;;;18.57;41.74;101290.59;2063139;28;47258;-63
2022/06/02 05:50:54;;;;;;;;;10.80;9.60;;;;;18.59;41.73;101288.69;2063104;28;48400;-63
2022/06/02 05:52:24;;;;;;;;;9.20;8.40;;;;;18.61;41.72;101281.41;2063257;28;47653;-64
2022/06/02 05:54:02;;;;;;;;;7.40;7.40;;;;;18.61;41.52;101286.81;2069554;28;47791;-65
2022/06/02 05:55:24;;;;;;;;;11.00;8.40;;;;;18.61;41.68;101278.72;2076343;28;47452;-64
2022/06/02 05:56:53;;;;;;;;;9.00;7.80;;;;;18.62;41.41;101283.16;2062542;28;48201;-64
2022/06/02 05:58:02;;;;;;;;;10.80;10.40;;;;;18.64;41.78;101285.81;2088146;27;46438;-64
2022/06/02 05:59:14;;;;;;;;;9.20;8.80;;;;;18.65;41.69;101284.88;2113335;27;46311;-64
2022/06/02 06:00:28;;;;;;;;;10.80;10.00;;;;;18.66;41.56;101282.09;2105708;27;47768;-62
2022/06/02 06:01:35;;;;;;;;;9.80;9.40;;;;;18.66;41.32;101283.91;2110448;27;47516;-63
2022/06/02 06:02:44;;;;;;;;;11.40;10.40;;;;;18.64;41.50;101284.00;2113867;27;47960;-64
2022/06/02 06:04:03;;;;;;;;;10.20;10.20;;;;;18.65;41.51;101282.19;2113806;27;47907;-64
2022/06/02 06:05:14;;;;;;;;;10.00;10.00;;;;;18.66;41.63;101284.78;2113322;27;47441;-64
2022/06/02 06:06:18;;;;;;;;;10.00;10.00;;;;;18.67;41.60;101280.28;2089898;28;47935;-63
2022/06/02 06:07:56;;;;;;;;;8.80;8.80;;;;;18.66;41.53;101275.84;2089474;28;48056;-63
2022/06/02 06:09:54;;;;;;;;;8.80;8.80;;;;;18.66;41.81;101281.22;2099644;28;47833;-64
2022/06/02 06:11:06;;;;;;;;;12.00;10.40;;;;;18.67;41.50;101269.53;2073768;28;47986;-63
2022/06/02 06:12:32;;;;;;;;;9.60;9.20;;;;;18.68;41.70;101280.25;2073634;28;47503;-64